Terminal Aerodrome Forecast
Issued by NWS

Home | Current Version | Previous Version | Text Only | Print | Product List | Glossary On
Versions: 1 2 3 4 5 6 7 8 9 10 11 12 13 14
000
FTUS42 KJAX 290557
TAFCRG
TAF
KCRG 290557Z 2906/3006 33005KT P6SM FEW250
     FM291400 31012G18KT P6SM SCT025 SCT150
     FM292000 35009KT P6SM SCT040 SCT120
     FM292200 07008KT P6SM FEW040 FEW120=

USA.gov is the U.S. government's official web portal to all federal, state and local government web resources and services.